createdAt,value
2018-12-23T00:00:41.419Z,73.06
2018-12-23T00:04:45.487Z,73.00
2018-12-23T00:08:49.520Z,73.01
2018-12-23T00:12:53.449Z,73.17
2018-12-23T00:16:57.454Z,73.17
2018-12-23T00:21:01.949Z,73.13
2018-12-23T00:25:05.989Z,72.99
2018-12-23T00:29:09.928Z,72.97
2018-12-23T00:33:13.871Z,73.28
2018-12-23T00:37:17.839Z,72.98
2018-12-23T00:41:21.842Z,73.38
2018-12-23T00:45:25.789Z,73.62
2018-12-23T00:49:29.846Z,74.03
2018-12-23T00:53:33.822Z,74.02
2018-12-23T00:57:37.776Z,73.84
2018-12-23T01:01:41.757Z,73.87
2018-12-23T01:05:45.785Z,73.94
2018-12-23T01:09:49.830Z,73.64
2018-12-23T01:13:53.846Z,74.30
2018-12-23T01:17:57.790Z,74.20
2018-12-23T01:22:01.751Z,73.68
2018-12-23T01:26:05.694Z,73.71
2018-12-23T01:30:09.819Z,73.85
2018-12-23T01:34:13.859Z,73.89
2018-12-23T01:38:17.803Z,73.89
2018-12-23T01:42:21.795Z,73.98
2018-12-23T01:46:25.747Z,73.99
2018-12-23T01:50:29.878Z,74.44
2018-12-23T01:54:33.879Z,73.98
2018-12-23T01:58:37.828Z,74.35
2018-12-23T02:02:41.773Z,74.06
2018-12-23T02:16:17.229Z,74.35
2018-12-23T02:20:22.801Z,74.30
2018-12-23T02:24:28.538Z,74.38
2018-12-23T02:28:34.069Z,74.39
2018-12-23T02:32:39.541Z,74.41
2018-12-23T02:41:08.329Z,74.38
2018-12-23T02:45:14.078Z,74.42
2018-12-23T02:49:19.702Z,74.41
2018-12-23T02:53:25.647Z,74.31
2018-12-23T02:57:31.274Z,74.44
2018-12-23T03:01:36.941Z,74.41
2018-12-23T03:05:43.013Z,74.32
2018-12-23T03:09:48.589Z,74.30
2018-12-23T03:13:54.422Z,74.35
2018-12-23T03:17:59.947Z,74.31
2018-12-23T03:22:05.456Z,74.26
2018-12-23T03:26:11.157Z,74.44
2018-12-23T03:30:16.679Z,74.45
2018-12-23T03:34:22.353Z,74.44
2018-12-23T03:38:27.994Z,74.40
2018-12-23T03:42:33.776Z,74.05
2018-12-23T03:46:39.763Z,74.04
2018-12-23T03:50:45.432Z,73.99
2018-12-23T03:54:51.270Z,73.92
2018-12-23T03:58:57.043Z,73.92
2018-12-23T04:03:15.788Z,73.90
2018-12-23T04:07:32.666Z,73.69
2018-12-23T04:11:38.375Z,73.69
2018-12-23T04:15:43.947Z,73.41
2018-12-23T04:19:49.876Z,73.33
2018-12-23T04:23:55.659Z,73.33
2018-12-23T04:28:01.329Z,73.37
2018-12-23T04:32:06.939Z,73.36
2018-12-23T04:36:12.532Z,73.21
2018-12-23T04:40:18.371Z,73.15
2018-12-23T04:44:24.376Z,73.05
2018-12-23T04:48:30.087Z,73.11
2018-12-23T04:52:35.784Z,73.11
2018-12-23T04:56:41.757Z,73.21
2018-12-23T05:00:47.830Z,73.28
2018-12-23T05:04:53.673Z,73.16
2018-12-23T05:08:59.266Z,73.18
2018-12-23T05:13:05.340Z,73.14
2018-12-23T05:17:10.852Z,73.00
2018-12-23T05:21:16.401Z,72.97
2018-12-23T05:25:22.007Z,72.82
2018-12-23T05:29:39.720Z,72.79
2018-12-23T05:33:45.117Z,72.79
2018-12-23T05:37:50.618Z,72.93
2018-12-23T05:41:56.060Z,72.80
2018-12-23T05:46:01.376Z,72.96
2018-12-23T05:50:06.874Z,73.00
2018-12-23T05:54:12.361Z,73.03
2018-12-23T05:58:17.802Z,73.07
2018-12-23T06:02:23.089Z,72.83
2018-12-23T06:06:28.607Z,72.88
2018-12-23T06:10:34.222Z,73.08
2018-12-23T06:14:45.111Z,72.79
2018-12-23T06:19:01.768Z,72.63
2018-12-23T06:23:07.150Z,72.59
2018-12-23T06:27:12.501Z,72.61
2018-12-23T06:31:36.838Z,72.68
2018-12-23T06:35:42.424Z,72.66
2018-12-23T06:39:47.890Z,72.70
2018-12-23T06:43:53.335Z,72.51
2018-12-23T06:47:59.071Z,72.34
2018-12-23T06:52:04.543Z,72.33
2018-12-23T06:56:09.919Z,72.04
2018-12-23T07:00:15.470Z,71.92
2018-12-23T07:04:21.021Z,71.69
2018-12-23T07:08:26.411Z,71.76
2018-12-23T07:12:31.783Z,71.85
2018-12-23T07:16:37.272Z,71.61
2018-12-23T07:20:55.362Z,71.61
2018-12-23T07:25:00.820Z,71.52
2018-12-23T07:29:06.289Z,71.36
2018-12-23T07:33:11.846Z,71.22
2018-12-23T07:37:27.239Z,71.18
2018-12-23T07:41:45.597Z,71.19
2018-12-23T07:45:51.029Z,71.23
2018-12-23T07:49:56.317Z,71.33
2018-12-23T07:54:01.697Z,71.15
2018-12-23T07:58:07.035Z,71.17
2018-12-23T08:02:23.691Z,71.17
2018-12-23T08:06:28.980Z,71.06
2018-12-23T08:10:34.789Z,71.11
2018-12-23T08:19:17.055Z,70.82
2018-12-23T08:23:22.502Z,70.78
2018-12-23T08:27:27.829Z,70.60
2018-12-23T08:31:33.227Z,70.46
2018-12-23T08:35:38.790Z,70.40
2018-12-23T08:39:44.176Z,70.13
2018-12-23T08:43:49.551Z,70.27
2018-12-23T08:47:54.972Z,70.19
2018-12-23T08:52:00.867Z,69.91
2018-12-23T08:56:06.347Z,69.99
2018-12-23T09:04:42.189Z,69.72
2018-12-23T09:08:47.638Z,69.74
2018-12-23T09:12:53.008Z,69.66
2018-12-23T09:16:58.565Z,69.50
2018-12-23T09:21:22.935Z,69.37
2018-12-23T09:25:28.439Z,69.29
2018-12-23T09:29:33.948Z,69.25
2018-12-23T09:33:39.371Z,69.13
2018-12-23T09:37:44.699Z,69.20
2018-12-23T09:41:50.221Z,69.16
2018-12-23T09:45:55.824Z,69.08
2018-12-23T09:50:01.201Z,69.26
2018-12-23T09:54:25.627Z,69.03
2018-12-23T09:58:31.742Z,69.29
2018-12-23T10:02:38.803Z,69.11
2018-12-23T10:06:46.102Z,68.94
2018-12-23T10:10:51.444Z,69.00
2018-12-23T10:14:56.818Z,68.92
2018-12-23T10:19:02.257Z,69.16
2018-12-23T10:23:07.747Z,69.49
2018-12-23T10:27:13.152Z,69.83
2018-12-23T10:31:18.538Z,69.98
2018-12-23T10:35:24.092Z,70.05
2018-12-23T10:39:29.511Z,70.32
2018-12-23T10:43:34.990Z,70.32
2018-12-23T10:47:42.115Z,70.88
2018-12-23T10:51:47.581Z,71.38
2018-12-23T10:55:53.172Z,71.59
2018-12-23T10:59:58.717Z,72.35
2018-12-23T11:04:05.026Z,72.88
2018-12-23T11:08:10.488Z,72.88
2018-12-23T11:12:15.900Z,73.03
2018-12-23T11:16:26.956Z,73.24
2018-12-23T11:20:32.402Z,72.95
2018-12-23T11:24:37.894Z,72.92
2018-12-23T11:28:43.308Z,72.72
2018-12-23T11:32:48.980Z,72.50
2018-12-23T11:41:24.827Z,72.26
2018-12-23T11:45:30.257Z,72.51
2018-12-23T11:49:35.729Z,72.61
2018-12-23T11:53:41.416Z,72.66
2018-12-23T11:57:47.201Z,72.42
2018-12-23T12:06:12.054Z,72.84
2018-12-23T12:10:17.733Z,73.09
2018-12-23T12:14:23.138Z,73.20
2018-12-23T12:18:28.714Z,73.27
2018-12-23T12:22:34.335Z,73.38
2018-12-23T12:26:58.923Z,73.22
2018-12-23T12:31:04.417Z,73.31
2018-12-23T12:35:30.872Z,73.28
2018-12-23T12:39:36.137Z,73.84
2018-12-23T12:43:41.667Z,73.54
2018-12-23T12:47:47.005Z,73.87
2018-12-23T12:51:52.498Z,73.78
2018-12-23T12:55:57.885Z,74.05
2018-12-23T13:00:03.716Z,73.83
2018-12-23T13:04:09.123Z,74.27
2018-12-23T13:08:33.832Z,74.27
2018-12-23T13:12:39.387Z,74.25
2018-12-23T13:16:45.081Z,74.15
2018-12-23T13:20:50.607Z,74.94
2018-12-23T13:24:56.280Z,74.80
2018-12-23T13:29:01.831Z,75.37
2018-12-23T13:33:07.275Z,75.72
2018-12-23T13:37:13.043Z,75.99
2018-12-23T13:41:41.096Z,76.38
2018-12-23T13:46:24.562Z,76.39
2018-12-23T13:51:07.918Z,76.33
2018-12-23T13:55:51.373Z,76.33
2018-12-23T14:00:34.799Z,76.59
2018-12-23T14:05:18.255Z,76.53
2018-12-23T14:10:01.683Z,76.49
2018-12-23T14:14:07.097Z,76.57
2018-12-23T14:18:14.168Z,76.54
2018-12-23T14:22:19.613Z,76.54
2018-12-23T14:26:25.087Z,76.81
2018-12-23T14:30:30.599Z,76.96
2018-12-23T14:34:36.101Z,77.14
2018-12-23T14:38:41.569Z,77.19
2018-12-23T14:42:47.169Z,77.29
2018-12-23T14:46:52.623Z,77.32
2018-12-23T14:51:17.226Z,77.34
2018-12-23T14:55:22.631Z,77.42
2018-12-23T14:59:28.137Z,77.51
2018-12-23T15:03:33.555Z,77.58
2018-12-23T15:07:58.206Z,77.52
2018-12-23T15:12:03.699Z,77.49
2018-12-23T15:16:20.426Z,77.46
2018-12-23T15:20:26.178Z,77.61
2018-12-23T15:24:31.494Z,77.61
2018-12-23T15:28:56.324Z,77.57
2018-12-23T15:33:01.733Z,77.59
2018-12-23T15:37:07.206Z,77.67
2018-12-23T15:41:12.793Z,77.72
2018-12-23T15:45:18.286Z,77.81
2018-12-23T15:49:23.805Z,77.85
2018-12-23T15:53:48.232Z,77.73
2018-12-23T15:57:53.723Z,77.73
2018-12-23T16:01:59.213Z,77.89
2018-12-23T16:10:21.641Z,77.98
2018-12-23T16:14:26.970Z,78.05
2018-12-23T16:18:44.154Z,77.90
2018-12-23T16:22:49.562Z,77.90
2018-12-23T16:26:55.066Z,78.14
2018-12-23T16:31:00.630Z,78.16
2018-12-23T16:35:25.511Z,78.15
2018-12-23T16:39:31.708Z,78.17
2018-12-23T16:43:37.704Z,78.13
2018-12-23T16:47:54.586Z,78.15
2018-12-23T16:56:38.616Z,78.14
2018-12-23T17:00:43.984Z,78.14
2018-12-23T17:04:49.468Z,78.05
2018-12-23T17:09:14.104Z,78.06
2018-12-23T17:22:06.129Z,77.85
2018-12-23T17:26:30.412Z,77.92
2018-12-23T17:35:08.352Z,77.99
2018-12-23T17:49:43.826Z,78.13
2018-12-23T18:12:07.690Z,78.37
2018-12-23T18:16:13.327Z,78.34
2018-12-23T18:20:18.810Z,78.33
2018-12-23T18:24:25.591Z,78.21
2018-12-23T18:28:31.102Z,78.12
2018-12-23T18:32:36.454Z,77.84
2018-12-23T18:36:42.143Z,77.84
2018-12-23T18:40:47.644Z,77.76
2018-12-23T18:44:53.353Z,77.71
2018-12-23T18:48:58.751Z,77.83
2018-12-23T18:53:04.261Z,77.93
2018-12-23T18:57:29.451Z,77.95
2018-12-23T19:01:36.272Z,77.97
2018-12-23T19:05:41.723Z,78.01
2018-12-23T19:09:56.746Z,78.05
2018-12-23T19:14:40.454Z,78.10
2018-12-23T19:19:23.873Z,78.10
2018-12-23T19:24:07.314Z,78.09
2018-12-23T19:28:50.798Z,78.12
2018-12-23T19:33:20.919Z,78.14
2018-12-23T19:43:13.459Z,78.00
2018-12-23T19:48:11.339Z,77.90
2018-12-23T20:16:49.722Z,77.50
2018-12-23T20:34:50.350Z,76.84
2018-12-23T20:48:03.407Z,77.33
2018-12-23T22:01:54.753Z,76.69
2018-12-23T22:06:22.943Z,76.24
2018-12-23T22:11:02.166Z,76.51
2018-12-23T22:56:33.595Z,77.00
2018-12-23T23:00:08.047Z,76.93
2018-12-23T23:04:15.205Z,77.09
2018-12-23T23:12:45.191Z,76.54
2018-12-23T23:16:50.722Z,76.40
2018-12-23T23:21:37.214Z,75.77
2018-12-23T23:25:27.809Z,75.79
2018-12-23T23:29:33.184Z,75.67
2018-12-23T23:33:38.654Z,75.79
2018-12-23T23:37:44.072Z,75.97
2018-12-23T23:41:58.097Z,76.12
2018-12-23T23:46:02.298Z,76.20
2018-12-23T23:54:29.118Z,76.27
2018-12-23T23:58:34.508Z,76.24
